Time,TemperatureF,DewpointF,PressureIn,WindDirection,WindDirectionDegrees,WindSpeedMPH,WindSpeedGustMPH,Humidity,HourlyPrecipIn,Conditions,Clouds,dailyrainin,SoftwareType,DateUTC
2015-05-06 00:05:00,48.7,35.8,30.05,NW,305,0.0,0.0,61,0.00,,,0.00,Wunderground v.1.13,2015-05-06 07:05:00,
2015-05-06 00:14:00,47.8,35.4,30.05,NW,305,0.0,0.0,62,0.00,,,0.00,Wunderground v.1.13,2015-05-06 07:14:00,
2015-05-06 00:24:00,46.9,35.4,30.05,NW,305,0.0,0.0,64,0.00,,,0.00,Wunderground v.1.13,2015-05-06 07:24:00,
2015-05-06 00:29:00,46.5,35.0,30.06,NW,304,0.0,0.0,64,0.00,,,0.00,Wunderground v.1.13,2015-05-06 07:29:00,
2015-05-06 00:39:00,46.0,35.3,30.06,NW,305,0.0,0.0,66,0.00,,,0.00,Wunderground v.1.13,2015-05-06 07:39:00,
2015-05-06 00:44:00,45.8,35.1,30.06,NW,305,0.0,0.0,66,0.00,,,0.00,Wunderground v.1.13,2015-05-06 07:44:00,
2015-05-06 00:54:00,45.0,35.1,30.06,NW,305,0.0,0.0,68,0.00,,,0.00,Wunderground v.1.13,2015-05-06 07:54:00,
2015-05-06 01:05:00,44.5,35.0,30.06,NW,305,0.0,0.0,69,0.00,,,0.00,Wunderground v.1.13,2015-05-06 08:05:00,
2015-05-06 01:15:00,43.9,34.7,30.06,West,264,0.0,0.0,70,0.00,,,0.00,Wunderground v.1.13,2015-05-06 08:15:00,
2015-05-06 01:24:00,43.3,34.5,30.07,West,264,0.0,0.0,71,0.00,,,0.00,Wunderground v.1.13,2015-05-06 08:24:00,
2015-05-06 01:30:00,43.0,34.6,30.06,West,264,0.0,0.0,72,0.00,,,0.00,Wunderground v.1.13,2015-05-06 08:30:00,
2015-05-06 01:39:00,42.6,34.5,30.07,West,265,0.0,0.0,73,0.00,,,0.00,Wunderground v.1.13,2015-05-06 08:39:00,
2015-05-06 01:49:00,42.2,34.2,30.07,West,265,0.0,0.0,73,0.00,,,0.00,Wunderground v.1.13,2015-05-06 08:49:00,
2015-05-06 01:59:00,41.8,34.1,30.06,West,264,0.0,0.0,74,0.00,,,0.00,Wunderground v.1.13,2015-05-06 08:59:00,
2015-05-06 02:05:00,41.5,34.2,30.06,WSW,244,0.0,0.0,75,0.00,,,0.00,Wunderground v.1.13,2015-05-06 09:05:00,
2015-05-06 02:14:00,41.3,34.0,30.07,WSW,242,0.0,0.0,75,0.00,,,0.00,Wunderground v.1.13,2015-05-06 09:14:00,
2015-05-06 02:19:00,41.1,34.1,30.07,WSW,243,0.0,0.0,76,0.00,,,0.00,Wunderground v.1.13,2015-05-06 09:19:00,
2015-05-06 02:29:00,40.8,33.8,30.06,WSW,243,0.0,0.0,76,0.00,,,0.00,Wunderground v.1.13,2015-05-06 09:29:00,
2015-05-06 02:39:00,40.4,33.4,30.07,WSW,243,0.0,0.0,76,0.00,,,0.00,Wunderground v.1.13,2015-05-06 09:39:00,
2015-05-06 02:44:00,40.3,33.7,30.07,WSW,242,0.0,0.0,77,0.00,,,0.00,Wunderground v.1.13,2015-05-06 09:44:00,
2015-05-06 02:54:00,40.3,33.7,30.07,WSW,242,0.0,0.0,77,0.00,,,0.00,Wunderground v.1.13,2015-05-06 09:54:00,
2015-05-06 03:05:00,40.2,33.9,30.07,SSW,208,0.0,0.0,78,0.00,,,0.00,Wunderground v.1.13,2015-05-06 10:05:00,
2015-05-06 03:14:00,40.1,33.8,30.07,SSW,208,0.0,0.0,78,0.00,,,0.00,Wunderground v.1.13,2015-05-06 10:14:00,
2015-05-06 03:24:00,39.9,33.6,30.07,SSW,207,0.0,0.0,78,0.00,,,0.00,Wunderground v.1.13,2015-05-06 10:24:00,
2015-05-06 03:44:00,39.5,33.5,30.07,SSW,207,0.0,0.0,79,0.00,,,0.00,Wunderground v.1.13,2015-05-06 10:44:00,
2015-05-06 03:54:00,39.5,33.5,30.07,SSW,198,0.0,0.0,79,0.00,,,0.00,Wunderground v.1.13,2015-05-06 10:54:00,
2015-05-06 04:04:00,39.2,33.2,30.07,SSW,198,0.0,0.0,79,0.00,,,0.00,Wunderground v.1.13,2015-05-06 11:04:00,
2015-05-06 04:14:00,38.8,32.8,30.07,SSW,198,0.0,0.0,79,0.00,,,0.00,Wunderground v.1.13,2015-05-06 11:14:00,
2015-05-06 04:24:00,38.6,32.6,30.07,SSW,198,0.0,0.0,79,0.00,,,0.00,Wunderground v.1.13,2015-05-06 11:24:00,
2015-05-06 04:34:00,38.6,33.0,30.06,SSW,198,0.0,0.0,80,0.00,,,0.00,Wunderground v.1.13,2015-05-06 11:34:00,
2015-05-06 04:44:00,38.4,32.8,30.06,SSW,198,0.0,0.0,80,0.00,,,0.00,Wunderground v.1.13,2015-05-06 11:44:00,
2015-05-06 04:49:00,38.3,32.7,30.06,SSW,198,0.0,0.0,80,0.00,,,0.00,Wunderground v.1.13,2015-05-06 11:49:00,
2015-05-06 04:59:00,38.2,32.6,30.06,SSW,198,0.0,0.0,80,0.00,,,0.00,Wunderground v.1.13,2015-05-06 11:59:00,
2015-05-06 05:04:00,37.9,32.3,30.06,SSW,198,0.0,0.0,80,0.00,,,0.00,Wunderground v.1.13,2015-05-06 12:04:00,
2015-05-06 05:14:00,37.7,32.1,30.06,SSW,198,0.0,0.0,80,0.00,,,0.00,Wunderground v.1.13,2015-05-06 12:14:00,
2015-05-06 05:19:00,37.5,31.9,30.06,SSW,198,0.0,0.0,80,0.00,,,0.00,Wunderground v.1.13,2015-05-06 12:19:00,
2015-05-06 05:29:00,37.1,31.5,30.06,SSW,198,0.0,0.0,80,0.00,,,0.00,Wunderground v.1.13,2015-05-06 12:29:00,
2015-05-06 05:39:00,36.9,31.6,30.06,SSW,198,0.0,0.0,81,0.00,,,0.00,Wunderground v.1.13,2015-05-06 12:39:00,
2015-05-06 05:49:00,36.5,31.2,30.06,SSW,198,0.0,0.0,81,0.00,,,0.00,Wunderground v.1.13,2015-05-06 12:49:00,
2015-05-06 05:54:00,36.3,31.0,30.06,SSW,198,0.0,0.0,81,0.00,,,0.00,Wunderground v.1.13,2015-05-06 12:54:00,
2015-05-06 06:04:00,36.1,30.8,30.07,SSW,198,0.0,0.0,81,0.00,,,0.00,Wunderground v.1.13,2015-05-06 13:04:00,
2015-05-06 06:14:00,35.9,30.9,30.07,SSW,198,0.0,0.0,82,0.00,,,0.00,Wunderground v.1.13,2015-05-06 13:14:00,
2015-05-06 06:24:00,35.9,30.9,30.07,SSW,198,0.0,0.0,82,0.00,,,0.00,Wunderground v.1.13,2015-05-06 13:24:00,
2015-05-06 06:34:00,36.2,31.5,30.08,SSW,198,0.0,0.0,83,0.00,,,0.00,Wunderground v.1.13,2015-05-06 13:34:00,
2015-05-06 06:44:00,37.0,32.3,30.08,SSW,198,0.0,0.0,83,0.00,,,0.00,Wunderground v.1.13,2015-05-06 13:44:00,
2015-05-06 06:49:00,37.6,33.2,30.08,SSW,198,0.0,0.0,84,0.00,,,0.00,Wunderground v.1.13,2015-05-06 13:49:00,
2015-05-06 07:04:00,39.5,35.1,30.08,SSW,198,0.0,0.0,84,0.00,,,0.00,Wunderground v.1.13,2015-05-06 14:04:00,
2015-05-06 07:14:00,40.5,36.0,30.08,SSW,198,0.0,0.0,84,0.00,,,0.00,Wunderground v.1.13,2015-05-06 14:14:00,
2015-05-06 07:24:00,41.7,36.9,30.08,SSW,198,0.0,0.0,83,0.00,,,0.00,Wunderground v.1.13,2015-05-06 14:24:00,
2015-05-06 07:34:00,42.7,37.3,30.08,SSW,198,0.0,0.0,81,0.00,,,0.00,Wunderground v.1.13,2015-05-06 14:34:00,
2015-05-06 07:44:00,43.9,37.8,30.08,SSW,198,0.0,0.0,79,0.00,,,0.00,Wunderground v.1.13,2015-05-06 14:44:00,
2015-05-06 07:54:00,45.0,37.9,30.08,SSW,198,0.0,0.0,76,0.00,,,0.00,Wunderground v.1.13,2015-05-06 14:54:00,
2015-05-06 07:59:00,45.4,37.6,30.08,SSW,198,0.0,0.0,74,0.00,,,0.00,Wunderground v.1.13,2015-05-06 14:59:00,
2015-05-06 08:04:00,45.6,37.1,30.09,SSW,206,0.0,0.0,72,0.00,,,0.00,Wunderground v.1.13,2015-05-06 15:04:00,
2015-05-06 08:14:00,46.1,36.9,30.09,SSW,206,0.0,0.0,70,0.00,,,0.00,Wunderground v.1.13,2015-05-06 15:14:00,
2015-05-06 08:24:00,46.6,36.6,30.09,SSW,206,0.0,0.0,68,0.00,,,0.00,Wunderground v.1.13,2015-05-06 15:24:00,
2015-05-06 08:34:00,47.0,36.6,30.09,SSW,209,0.0,0.0,67,0.00,,,0.00,Wunderground v.1.13,2015-05-06 15:34:00,
2015-05-06 08:44:00,46.9,36.1,30.09,SSW,209,0.0,0.0,66,0.00,,,0.00,Wunderground v.1.13,2015-05-06 15:44:00,
2015-05-06 08:49:00,46.9,36.5,30.09,SSW,209,0.0,0.0,67,0.00,,,0.00,Wunderground v.1.13,2015-05-06 15:49:00,
2015-05-06 08:59:00,47.4,37.0,30.09,SSW,209,0.0,0.0,67,0.00,,,0.00,Wunderground v.1.13,2015-05-06 15:59:00,
2015-05-06 09:04:00,47.7,36.9,30.09,SSW,209,0.0,0.0,66,0.00,,,0.00,Wunderground v.1.13,2015-05-06 16:04:00,
2015-05-06 09:14:00,48.7,37.5,30.09,SSW,209,0.0,0.0,65,0.00,,,0.00,Wunderground v.1.13,2015-05-06 16:14:00,
2015-05-06 09:24:00,49.4,37.7,30.09,SSW,209,0.0,0.0,64,0.00,,,0.00,Wunderground v.1.13,2015-05-06 16:24:00,
2015-05-06 09:34:00,50.3,37.8,30.09,SW,215,0.0,0.0,62,0.00,,,0.00,Wunderground v.1.13,2015-05-06 16:34:00,
2015-05-06 09:39:00,50.5,37.5,30.09,SW,214,0.0,0.0,61,0.00,,,0.00,Wunderground v.1.13,2015-05-06 16:39:00,
2015-05-06 09:49:00,50.4,37.0,30.08,SW,214,0.0,0.0,60,0.00,,,0.00,Wunderground v.1.13,2015-05-06 16:49:00,
2015-05-06 09:54:00,51.0,37.6,30.08,SW,214,0.0,0.0,60,0.00,,,0.00,Wunderground v.1.13,2015-05-06 16:54:00,
2015-05-06 10:04:00,52.1,35.0,30.08,NW,313,0.0,0.0,52,0.00,,,0.00,Wunderground v.1.13,2015-05-06 17:04:00,
2015-05-06 10:09:00,52.8,35.6,30.08,NW,313,0.0,0.0,52,0.00,,,0.00,Wunderground v.1.13,2015-05-06 17:09:00,
2015-05-06 10:19:00,55.3,35.4,30.07,ESE,106,0.0,0.0,47,0.00,,,0.00,Wunderground v.1.13,2015-05-06 17:19:00,
2015-05-06 10:24:00,55.6,36.2,30.07,East,98,0.0,0.0,48,0.00,,,0.00,Wunderground v.1.13,2015-05-06 17:24:00,
2015-05-06 10:34:00,56.6,36.0,30.07,SSE,151,0.0,0.0,46,0.00,,,0.00,Wunderground v.1.13,2015-05-06 17:34:00,
2015-05-06 10:44:00,56.2,35.1,30.07,WSW,250,1.0,1.0,45,0.00,,,0.00,Wunderground v.1.13,2015-05-06 17:44:00,
2015-05-06 10:54:00,55.7,34.7,30.07,WNW,288,1.0,1.0,45,0.00,,,0.00,Wunderground v.1.13,2015-05-06 17:54:00,
2015-05-06 11:04:00,56.2,35.7,30.06,SW,218,1.0,2.0,46,0.00,,,0.00,Wunderground v.1.13,2015-05-06 18:04:00,
2015-05-06 11:14:00,57.7,35.9,30.06,SSW,210,1.0,1.0,44,0.00,,,0.00,Wunderground v.1.13,2015-05-06 18:14:00,
2015-05-06 11:24:00,59.0,36.5,30.06,SW,226,1.0,1.0,43,0.00,,,0.00,Wunderground v.1.13,2015-05-06 18:24:00,
2015-05-06 11:34:00,59.0,35.3,30.06,SSW,199,1.0,2.0,41,0.00,,,0.00,Wunderground v.1.13,2015-05-06 18:34:00,
2015-05-06 11:39:00,59.0,35.3,30.06,WSW,256,1.0,1.0,41,0.00,,,0.00,Wunderground v.1.13,2015-05-06 18:39:00,
2015-05-06 11:49:00,59.7,34.7,30.05,West,263,1.0,1.0,39,0.00,,,0.00,Wunderground v.1.13,2015-05-06 18:49:00,
2015-05-06 11:59:00,60.4,34.7,30.05,WSW,257,1.0,2.0,38,0.00,,,0.00,Wunderground v.1.13,2015-05-06 18:59:00,
2015-05-06 12:04:00,59.5,34.5,30.04,West,260,1.0,1.0,39,0.00,,,0.00,Wunderground v.1.13,2015-05-06 19:04:00,
2015-05-06 12:14:00,59.9,34.9,30.04,West,273,1.0,1.0,39,0.00,,,0.00,Wunderground v.1.13,2015-05-06 19:14:00,
2015-05-06 12:24:00,60.0,32.9,30.03,NW,310,3.0,3.0,36,0.00,,,0.00,Wunderground v.1.13,2015-05-06 19:24:00,
2015-05-06 12:29:00,59.6,33.3,30.03,NE,48,2.0,2.0,37,0.00,,,0.00,Wunderground v.1.13,2015-05-06 19:29:00,
2015-05-06 12:39:00,61.0,34.5,30.02,SSE,163,1.0,1.0,37,0.00,,,0.00,Wunderground v.1.13,2015-05-06 19:39:00,
2015-05-06 12:44:00,61.1,33.9,30.02,West,279,1.0,1.0,36,0.00,,,0.00,Wunderground v.1.13,2015-05-06 19:44:00,
2015-05-06 12:54:00,60.7,33.6,30.02,NNW,327,1.0,1.0,36,0.00,,,0.00,Wunderground v.1.13,2015-05-06 19:54:00,
2015-05-06 13:05:00,61.9,33.9,30.02,West,259,2.0,4.0,35,0.00,,,0.00,Wunderground v.1.13,2015-05-06 20:05:00,
2015-05-06 13:15:00,62.1,34.1,30.01,NNW,333,2.0,2.0,35,0.00,,,0.00,Wunderground v.1.13,2015-05-06 20:15:00,
2015-05-06 13:20:00,63.2,33.6,30.01,WNW,295,1.0,2.0,33,0.00,,,0.00,Wunderground v.1.13,2015-05-06 20:20:00,
2015-05-06 13:30:00,62.8,34.0,30.00,ENE,73,2.0,4.0,34,0.00,,,0.00,Wunderground v.1.13,2015-05-06 20:30:00,
2015-05-06 13:40:00,63.5,33.1,30.00,West,279,4.0,4.0,32,0.00,,,0.00,Wunderground v.1.13,2015-05-06 20:40:00,
2015-05-06 13:55:00,64.4,32.3,30.00,NW,311,4.0,4.0,30,0.00,,,0.00,Wunderground v.1.13,2015-05-06 20:55:00,
2015-05-06 14:05:00,65.1,31.2,30.00,NW,311,2.0,3.0,28,0.00,,,0.00,Wunderground v.1.13,2015-05-06 21:05:00,
2015-05-06 14:15:00,65.0,32.8,29.99,North,360,4.0,4.0,30,0.00,,,0.00,Wunderground v.1.13,2015-05-06 21:15:00,
2015-05-06 14:25:00,65.2,31.2,29.99,NW,319,3.0,3.0,28,0.00,,,0.00,Wunderground v.1.13,2015-05-06 21:25:00,